Latest Weather Observations for Perisher Valley

IDN60901

Issued at 3:41 pm EST Tuesday 28 July 2015 (issued every 10 minutes, with the page automatically refreshed every 10 minutes)

About weather observations | Map of Canberra area stations | Latest observations for Canberra area | Other Formats
Station Details ID: 071075 Name: PERISHER VALLEY AWS Lat: -36.41 Lon: 148.41 Height: 1738.0 m
Data from the previous 72 hours. | See also: Recent months at Perisher Valley
Date/Time
EST
Tmp

°C
App
Tmp
°C
Dew
Point
°C
Rel
Hum
%
Delta-T

°C
Wind Press
QNH
hPa
Press
MSL
hPa
Rain
since
9 am
mm
Dir
 
Spd
km/h
Gust
km/h
Spd
kts
Gust
kts
28/03:30pm 0.7 -3.4 -3.4 74 1.6 W 9 19 5 10 - - 0.0
28/03:00pm 1.9 -1.2 -3.0 70 1.9 WSW 4 13 2 7 - - 0.0
28/02:30pm 1.4 -2.3 -3.1 72 1.8 SW 7 17 4 9 - - 0.0
28/02:00pm 1.0 -3.1 -3.1 74 1.6 WSW 9 17 5 9 - - 0.0
28/01:30pm 1.3 -2.5 -3.4 71 1.8 WSW 7 17 4 9 - - 0.0
28/01:00pm 1.6 -2.1 -2.9 72 1.8 SW 7 17 4 9 - - 0.0
28/12:30pm 1.6 -2.1 -2.7 73 1.7 SW 7 19 4 10 - - 0.0
28/12:00pm 1.8 -3.0 -2.5 73 1.7 SW 13 28 7 15 - - 0.0
28/11:30am 1.3 -3.1 -2.5 76 1.5 SW 11 24 6 13 - - 0.0
28/11:00am 1.3 -3.1 -2.6 75 1.6 SW 11 24 6 13 - - 0.0
28/10:30am 1.0 -3.4 -2.4 78 1.4 SW 11 32 6 17 - - 0.0
28/10:00am 0.8 -4.0 -2.2 80 1.2 SW 13 30 7 16 - - 0.0
28/09:30am 0.4 -4.5 -3.0 78 1.3 WSW 13 26 7 14 - - 0.0
28/09:00am -0.6 -5.5 -3.8 79 1.1 WSW 13 26 7 14 - - 0.0
28/08:30am -0.8 -5.3 -3.2 84 0.9 SW 11 22 6 12 - - 0.0
28/08:00am -1.3 -5.8 -3.0 88 0.6 WSW 11 22 6 12 - - 0.0
28/07:30am -1.7 -6.2 -3.3 89 0.5 WSW 11 26 6 14 - - 0.0
28/07:00am -2.0 -6.6 -3.7 88 0.5 WSW 11 28 6 15 - - 0.0
28/06:30am -2.1 -7.8 -4.1 86 0.6 WSW 17 37 9 20 - - 0.0
28/06:00am -2.1 -7.8 -4.1 86 0.6 WSW 17 35 9 19 - - 0.0
28/05:30am -1.6 -6.6 -4.1 83 0.8 SW 13 35 7 19 - - 0.0
28/05:00am -1.8 -7.5 -4.0 85 0.7 WSW 17 37 9 20 - - 0.0
28/04:30am -2.0 -8.3 -4.0 86 0.6 WSW 20 44 11 24 - - 0.0
28/04:00am -2.2 -8.0 -4.2 86 0.6 WSW 17 39 9 21 - - 0.0
28/03:30am -2.5 -7.5 -4.5 86 0.6 WSW 13 26 7 14 - - 0.0
28/03:00am -2.8 -7.5 -4.8 86 0.6 WSW 11 28 6 15 - - 0.0
28/02:30am -3.0 -8.4 -4.7 88 0.5 WSW 15 28 8 15 - - 0.0
28/02:00am -3.0 -8.8 -4.9 87 0.5 WSW 17 32 9 17 - - 0.0
28/01:30am -3.0 -9.8 -5.2 85 0.6 WSW 22 46 12 25 - - 0.0
28/01:10am -3.0 -10.9 -5.2 85 0.6 WSW 28 50 15 27 - - 0.0
28/01:00am -3.1 -9.9 -4.9 87 0.5 WSW 22 39 12 21 - - 0.0
28/12:37am -2.9 -10.8 -4.9 86 0.6 WSW 28 48 15 26 - - 0.0
28/12:30am -3.1 -10.2 -4.8 88 0.4 WSW 24 39 13 21 - - 0.0
28/12:00am -3.0 -9.2 -4.6 89 0.4 WSW 19 37 10 20 - - 0.0
 
Date/Time
EST
Tmp

°C
App
Tmp
°C
Dew
Point
°C
Rel
Hum
%
Delta-T

°C
Wind Press
QNH
hPa
Press
MSL
hPa
Rain
since
9 am
mm
Dir
 
Spd
km/h
Gust
km/h
Spd
kts
Gust
kts
27/11:30pm -3.0 -9.2 -4.9 87 0.5 WSW 19 37 10 20 - - 0.0
27/11:00pm -3.0 -9.8 -5.3 84 0.7 WSW 22 39 12 21 - - 0.0
27/10:30pm -3.0 -9.4 -5.3 84 0.7 WSW 20 39 11 21 - - 0.0
27/10:00pm -2.7 -7.7 -4.7 86 0.6 WSW 13 26 7 14 - - 0.0
27/09:30pm -2.4 -7.9 -5.0 82 0.8 WSW 15 32 8 17 - - 0.0
27/09:00pm -2.6 -7.7 -4.8 85 0.6 WSW 13 33 7 18 - - 0.0
27/08:30pm -2.5 -8.3 -5.1 82 0.8 WSW 17 28 9 15 - - 0.0
27/08:00pm -2.6 -7.3 -4.6 86 0.6 WSW 11 26 6 14 - - 0.0
27/07:30pm -2.6 -7.3 -4.8 85 0.6 WSW 11 24 6 13 - - 0.0
27/07:00pm -2.4 -7.9 -5.0 82 0.8 WSW 15 28 8 15 - - 0.0
27/06:30pm -2.3 -8.5 -4.9 82 0.8 WSW 19 33 10 18 - - 0.0
27/06:00pm -2.8 -9.0 -5.1 84 0.7 WSW 19 35 10 19 - - 0.0
27/05:30pm -2.4 -8.8 -5.2 81 0.9 WSW 20 33 11 18 - - 0.0
27/05:00pm -2.9 -7.6 -5.4 83 0.7 WSW 11 22 6 12 - - 0.0
27/04:30pm -2.9 -8.0 -5.5 82 0.8 W 13 30 7 16 - - 0.0
27/04:00pm -3.0 -8.9 -5.5 83 0.7 W 17 35 9 19 - - 0.0
27/03:30pm -2.6 -7.7 -5.1 83 0.7 W 13 24 7 13 - - 0.0
27/03:00pm -1.8 -5.7 -4.9 79 1.0 WSW 7 19 4 10 - - 0.0
27/02:30pm -2.0 -7.1 -4.8 81 0.9 WSW 13 28 7 15 - - 0.0
27/02:00pm -2.2 -7.3 -5.2 80 0.9 WSW 13 28 7 15 - - 0.0
27/01:30pm -2.1 -7.2 -4.9 81 0.9 WSW 13 32 7 17 - - 0.0
27/01:00pm -2.4 -8.3 -5.2 81 0.9 WSW 17 35 9 19 - - 0.0
27/12:30pm -2.6 -8.8 -5.2 82 0.8 WSW 19 39 10 21 - - 0.0
27/12:00pm -2.7 -9.1 -5.0 84 0.7 WSW 20 37 11 20 - - 0.0
27/11:30am -2.9 -10.5 -5.4 83 0.7 WSW 26 44 14 24 - - 0.0
27/11:00am -3.2 -11.6 -5.5 84 0.6 WSW 30 56 16 30 - - 0.0
27/10:59am -3.4 -11.4 -5.7 84 0.6 WSW 28 56 15 30 - - 0.0
27/10:30am -3.4 -9.7 -5.7 84 0.6 WSW 19 33 10 18 - - 0.0
27/10:00am -3.9 -10.8 -6.0 85 0.5 WSW 22 44 12 24 - - 0.0
27/09:30am -4.0 -10.9 -6.3 84 0.6 WSW 22 44 12 24 - - 0.0
27/09:00am -4.2 -11.9 -6.6 83 0.6 W 26 41 14 22 - - 19.2
27/08:30am -4.7 -12.0 -6.8 85 0.5 WSW 24 43 13 23 - - 19.2
27/08:00am -5.0 -13.2 -7.3 84 0.5 WSW 28 46 15 25 - - 19.2
27/07:34am -5.2 -13.7 -7.2 86 0.4 WSW 30 48 16 26 - - 19.2
27/07:30am -5.2 -14.1 -7.0 87 0.4 WSW 32 48 17 26 - - 19.2
27/07:05am -5.5 -15.3 -7.0 89 0.3 WSW 37 57 20 31 - - 19.2
27/07:00am -5.4 -15.6 -7.1 88 0.3 WSW 39 57 21 31 - - 19.2
27/06:30am -5.4 -14.3 -7.1 88 0.3 WSW 32 52 17 28 - - 19.2
27/06:00am -5.4 -13.9 -6.9 89 0.3 W 30 54 16 29 - - 19.2
27/05:33am -5.7 -14.2 -6.9 91 0.1 WSW 30 52 16 28 - - 19.2
27/05:30am -5.7 -14.2 -6.9 91 0.1 WSW 30 46 16 25 - - 19.2
27/05:05am -5.7 -13.8 -7.1 90 0.2 W 28 54 15 29 - - 19.2
27/05:00am -5.8 -12.8 -7.2 90 0.2 W 22 46 12 25 - - 19.2
27/04:30am -5.8 -11.8 -6.9 92 0.1 WSW 17 48 9 26 - - 19.2
27/04:01am -5.8 -13.9 -6.9 92 0.1 W 28 52 15 28 - - 19.2
27/04:00am -5.8 -13.5 -6.9 92 0.1 W 26 52 14 28 - - 19.2
27/03:30am -5.7 -12.3 -6.8 92 0.1 W 20 59 11 32 - - 19.0
27/03:00am -5.6 -12.6 -6.7 92 0.1 WNW 22 48 12 26 - - 19.0
27/02:30am -5.4 -12.7 -6.6 91 0.2 WNW 24 46 13 25 - - 18.8
27/02:00am -5.4 -12.0 -6.6 91 0.2 W 20 39 11 21 - - 18.6
27/01:30am -5.3 -13.4 -6.5 91 0.2 W 28 43 15 23 - - 18.4
27/01:23am -5.4 -13.5 -6.8 90 0.2 W 28 50 15 27 - - 18.4
27/01:00am -5.3 -12.6 -6.7 90 0.2 W 24 46 13 25 - - 18.4
27/12:30am -5.0 -14.4 -6.2 91 0.2 W 35 56 19 30 - - 18.2
27/12:00am -5.0 -13.4 -6.1 92 0.1 W 30 52 16 28 - - 18.0
 
Date/Time
EST
Tmp

°C
App
Tmp
°C
Dew
Point
°C
Rel
Hum
%
Delta-T

°C
Wind Press
QNH
hPa
Press
MSL
hPa
Rain
since
9 am
mm
Dir
 
Spd
km/h
Gust
km/h
Spd
kts
Gust
kts
26/11:30pm -4.9 -13.7 -6.0 92 0.2 W 32 50 17 27 - - 18.0
26/11:00pm -4.8 -12.8 -5.9 92 0.2 W 28 50 15 27 - - 17.8
26/10:30pm -5.0 -13.0 -6.1 92 0.1 W 28 63 15 34 - - 17.6
26/10:00pm -4.9 -13.7 -6.0 92 0.2 W 32 57 17 31 - - 17.4
26/09:30pm -5.1 -14.1 -6.5 90 0.2 W 33 61 18 33 - - 17.2
26/09:00pm -5.4 -13.9 -6.6 91 0.2 W 30 52 16 28 - - 16.8
26/08:44pm -5.3 -13.4 -6.5 91 0.2 W 28 50 15 27 - - 16.8
26/08:30pm -5.3 -10.9 -6.4 92 0.1 W 15 28 8 15 - - 16.6
26/08:00pm -5.2 -11.7 -6.3 92 0.1 W 20 46 11 25 - - 16.2
26/07:30pm -5.1 -13.1 -6.2 92 0.1 WSW 28 54 15 29 - - 15.8
26/07:12pm -5.1 -13.2 -6.5 90 0.2 WSW 28 61 15 33 - - 15.6
26/07:00pm -4.9 -11.8 -5.9 93 0.1 W 22 65 12 35 - - 15.6
26/06:30pm -4.8 -13.6 -5.9 92 0.2 WNW 32 56 17 30 - - 15.4
26/06:00pm -4.8 -14.6 -6.2 90 0.3 W 37 67 20 36 - - 15.2
26/05:30pm -4.4 -12.4 -5.8 90 0.3 W 28 56 15 30 - - 15.0
26/05:00pm -4.4 -14.8 -5.5 92 0.2 W 41 72 22 39 - - 14.8
26/04:30pm -4.0 -13.3 -5.2 91 0.2 W 35 65 19 35 - - 14.0
26/04:00pm -4.4 -13.7 -5.8 90 0.3 WNW 35 61 19 33 - - 13.8
26/03:30pm -4.1 -13.0 -5.5 90 0.3 W 33 61 18 33 - - 13.6
26/03:00pm -4.0 -14.1 -5.7 88 0.4 W 39 69 21 37 - - 13.6
26/02:30pm -3.6 -12.3 -4.7 92 0.2 W 32 67 17 36 - - 13.6
26/02:10pm -3.2 -11.0 -4.2 93 0.2 W 28 52 15 28 - - 13.0
26/02:00pm -3.5 -9.7 -4.6 92 0.2 W 19 46 10 25 - - 12.4
26/01:30pm -3.2 -9.5 -4.3 92 0.2 W 20 50 11 27 - - 11.6
26/01:00pm -3.0 -8.0 -4.0 93 0.2 W 13 28 7 15 - - 11.0
26/12:30pm -2.9 -8.6 -3.7 94 0.2 W 17 46 9 25 - - 10.4
26/12:09pm -2.6 -9.2 -3.4 94 0.2 W 22 65 12 35 - - 10.0
26/12:00pm -2.2 -7.1 -3.0 94 0.2 W 13 33 7 18 - - 9.6
26/11:37am -1.9 -9.6 -2.7 94 0.2 W 28 56 15 30 - - 8.4
26/11:30am -1.9 -8.4 -2.7 94 0.2 W 22 50 12 27 - - 8.0
26/11:00am -1.3 -9.3 -2.0 95 0.2 W 30 54 16 29 - - 6.6
26/10:50am -0.9 -8.1 -1.7 94 0.3 W 26 52 14 28 - - 6.2
26/10:46am -0.5 -5.9 -1.3 94 0.3 W 17 46 9 25 - - 6.2
26/10:30am -0.1 -3.9 -0.9 94 0.3 W 9 24 5 13 - - 5.2
26/10:00am -0.2 -4.1 -1.2 93 0.4 WNW 9 33 5 18 - - 3.8
26/09:30am 0.0 -3.4 -0.8 94 0.3 WNW 7 20 4 11 - - 2.2
26/09:00am -0.1 -3.9 -0.9 94 0.3 WNW 9 30 5 16 - - 19.4
26/08:30am -0.1 -4.3 -0.9 94 0.3 WNW 11 43 6 23 - - 17.6
26/08:00am 0.1 -3.7 -0.6 95 0.3 W 9 26 5 14 - - 15.6
26/07:30am 0.1 -3.3 -0.5 96 0.2 N 7 32 4 17 - - 13.0
26/07:00am -0.1 -3.9 -0.7 96 0.2 NW 9 24 5 13 - - 11.0
26/06:30am -0.1 -4.2 -0.5 97 0.2 W 11 35 6 19 - - 9.2
26/06:00am -0.2 -4.4 -0.6 97 0.1 WNW 11 39 6 21 - - 7.4
26/05:30am -0.3 -5.6 -0.7 97 0.1 W 17 46 9 25 - - 7.0
26/05:00am -0.6 -6.0 -1.2 96 0.2 WSW 17 57 9 31 - - 6.0
26/04:30am -0.9 -6.7 -1.3 97 0.1 W 19 44 10 24 - - 5.2
26/04:00am -1.1 -7.9 -1.7 96 0.2 W 24 57 13 31 - - 5.0
26/03:30am -1.1 -7.1 -1.5 97 0.1 W 20 56 11 30 - - 4.4
26/03:00am -1.2 -7.2 -1.8 96 0.2 W 20 57 11 31 - - 4.0
26/02:30am -1.2 -9.2 -2.0 94 0.2 W 30 63 16 34 - - 3.8
26/02:00am -1.3 -9.7 -2.1 94 0.2 W 32 59 17 32 - - 3.8
26/01:30am -0.8 -8.3 -1.4 96 0.2 W 28 61 15 33 - - 3.6
26/01:00am -0.8 -9.6 -1.5 95 0.2 W 35 57 19 31 - - 3.0
26/12:30am -1.0 -9.9 -1.8 94 0.3 W 35 67 19 36 - - 2.6
26/12:00am -1.2 -9.7 -2.0 94 0.2 W 33 76 18 41 - - 2.4
 
Date/Time
EST
Tmp

°C
App
Tmp
°C
Dew
Point
°C
Rel
Hum
%
Delta-T

°C
Wind Press
QNH
hPa
Press
MSL
hPa
Rain
since
9 am
mm
Dir
 
Spd
km/h
Gust
km/h
Spd
kts
Gust
kts
25/11:41pm -1.2 -10.3 -3.2 86 0.7 W 35 78 19 42 - - 2.4
25/11:30pm -1.4 -9.8 -2.8 90 0.5 W 32 50 17 27 - - 2.4
25/11:00pm -1.4 -11.1 -2.5 92 0.3 W 39 72 21 39 - - 2.4
25/10:30pm -1.6 -10.6 -3.0 90 0.4 W 35 70 19 38 - - 2.4
25/10:00pm -1.7 -12.9 -3.6 87 0.6 W 46 74 25 40 - - 2.4
25/09:30pm -1.8 -13.6 -2.6 94 0.2 W 50 80 27 43 - - 2.4
25/09:21pm -1.9 -9.6 -2.7 94 0.2 W 28 59 15 32 - - 2.2
25/09:00pm -1.9 -8.8 -3.0 92 0.3 W 24 50 13 27 - - 2.2
25/08:38pm -2.0 -9.8 -3.6 89 0.5 W 28 50 15 27 - - 2.2
25/08:30pm -2.0 -9.4 -3.6 89 0.5 W 26 57 14 31 - - 2.2
25/08:00pm -2.0 -10.7 -3.1 92 0.3 W 33 63 18 34 - - 2.2
25/07:30pm -2.0 -11.4 -3.1 92 0.3 W 37 72 20 39 - - 2.2
25/07:00pm -1.9 -12.1 -2.9 93 0.3 W 41 78 22 42 - - 2.2
25/06:57pm -1.9 -11.7 -3.0 92 0.3 W 39 78 21 42 - - 2.2
25/06:30pm -1.9 -10.4 -2.9 93 0.3 W 32 59 17 32 - - 2.2
25/06:00pm -1.8 -11.6 -3.1 91 0.4 W 39 70 21 38 - - 2.2
25/05:30pm -2.0 -11.9 -3.9 87 0.6 W 39 76 21 41 - - 2.2
25/05:00pm -2.1 -10.8 -3.8 88 0.5 W 33 61 18 33 - - 2.2
25/04:30pm -1.9 -10.6 -3.6 88 0.5 W 33 59 18 32 - - 2.2
25/04:00pm -1.9 -12.1 -3.5 89 0.5 W 41 69 22 37 - - 2.2

Latest Capital City Observations: Canberra | Sydney | Melbourne | Brisbane | Adelaide | Perth | Hobart | Darwin

Other Formats:

Comma delimited format used in spreadsheet applications
http://www.bom.gov.au/fwo/IDN60903/IDN60903.94915.axf

JavaScript Object Notation format (JSON) in row-major order
http://www.bom.gov.au/fwo/IDN60903/IDN60903.94915.json